Time;durP1;ratioP1;P1;durP2;ratioP2;P2;SDS_P1;SDS_P2;PMS_P1;PMS_P2;Temp;Humidity;BMP_temperature;BMP_pressure;BME280_temperature;BME280_humidity;BME280_pressure;Samples;Min_cycle;Max_cycle;Signal;HPM_P1;HPM_P2
2021/03/06 00:00:57;;;;;;;9.40;4.00;;;;;;;-1.37;65.76;101869.25;2064540;28;20437;-62
2021/03/06 00:01:57;;;;;;;6.28;4.22;;;;;;;-1.32;65.70;101872.00;2064577;28;20088;-62
2021/03/06 00:02:57;;;;;;;5.73;4.40;;;;;;;-1.29;65.39;101874.72;2064626;28;20076;-62
2021/03/06 00:03:58;;;;;;;5.47;4.20;;;;;;;-1.32;65.58;101872.88;2064559;28;20034;-62
2021/03/06 00:04:58;;;;;;;5.57;4.17;;;;;;;-1.31;65.53;101871.19;2064822;28;20026;-62
2021/03/06 00:05:58;;;;;;;6.07;4.20;;;;;;;-1.47;66.01;101877.28;2064440;28;20026;-62
2021/03/06 00:06:59;;;;;;;6.10;4.30;;;;;;;-1.37;65.72;101873.50;2064718;28;20101;-62
2021/03/06 00:07:59;;;;;;;5.50;4.37;;;;;;;-1.48;66.17;101868.75;2063986;28;20022;-62
2021/03/06 00:08:59;;;;;;;5.30;3.73;;;;;;;-1.38;65.79;101872.59;2064633;28;20022;-62
2021/03/06 00:10:00;;;;;;;6.67;4.17;;;;;;;-1.37;65.68;101876.91;2062980;28;20044;-62
2021/03/06 00:11:00;;;;;;;6.37;4.10;;;;;;;-1.59;66.11;101875.91;2063742;28;20073;-62
2021/03/06 00:12:00;;;;;;;5.60;4.50;;;;;;;-1.52;66.19;101874.53;2064598;28;20023;-62
2021/03/06 00:13:01;;;;;;;5.67;4.50;;;;;;;-1.52;66.37;101881.34;2064018;28;20139;-62
2021/03/06 00:14:01;;;;;;;7.87;4.77;;;;;;;-1.52;66.34;101881.34;2064473;28;20031;-62
2021/03/06 00:15:01;;;;;;;6.47;4.37;;;;;;;-1.54;66.36;101882.94;2064289;28;20109;-62
2021/03/06 00:16:02;;;;;;;10.80;4.77;;;;;;;-1.55;66.53;101883.75;2064341;28;20026;-62
2021/03/06 00:17:03;;;;;;;6.40;4.43;;;;;;;-1.45;66.24;101883.38;2064325;28;20018;-62
2021/03/06 00:18:03;;;;;;;8.37;4.47;;;;;;;-1.45;65.97;101883.38;2064430;28;20489;-62
2021/03/06 00:19:04;;;;;;;5.80;4.00;;;;;;;-1.49;66.22;101877.22;2064229;28;20029;-62
2021/03/06 00:20:05;;;;;;;5.60;4.57;;;;;;;-1.61;66.58;101880.06;2064176;28;20076;-62
2021/03/06 00:21:06;;;;;;;5.78;4.18;;;;;;;-1.47;66.03;101874.72;2064122;28;20161;-62
2021/03/06 00:22:06;;;;;;;6.07;4.30;;;;;;;-1.35;65.44;101876.97;2064336;28;20030;-62
2021/03/06 00:23:06;;;;;;;6.50;4.33;;;;;;;-1.28;65.32;101877.31;2064069;28;20536;-62
2021/03/06 00:24:07;;;;;;;6.33;4.40;;;;;;;-1.16;64.69;101877.00;2064442;28;20053;-62
2021/03/06 00:25:10;;;;;;;9.68;4.45;;;;;;;-1.15;64.69;101873.63;2064134;28;20639;-62
2021/03/06 00:26:10;;;;;;;6.25;4.65;;;;;;;-1.36;65.25;101878.66;2064224;28;20034;-62
2021/03/06 00:27:10;;;;;;;7.37;4.43;;;;;;;-1.36;65.29;101878.66;2064274;28;20356;-62
2021/03/06 00:28:11;;;;;;;6.80;4.77;;;;;;;-1.40;65.33;101876.75;2064347;28;20018;-62
2021/03/06 00:29:11;;;;;;;7.13;4.33;;;;;;;-1.44;65.73;101875.75;2064192;28;20096;-62
2021/03/06 00:30:14;;;;;;;6.23;3.90;;;;;;;-1.42;65.64;101871.59;2064215;28;20026;-62
2021/03/06 00:31:15;;;;;;;6.82;4.60;;;;;;;-1.44;65.91;101875.75;2064222;28;20586;-62
2021/03/06 00:32:15;;;;;;;6.57;4.53;;;;;;;-1.48;65.99;101872.97;2064297;28;20042;-62
2021/03/06 00:33:15;;;;;;;5.97;3.90;;;;;;;-1.28;65.37;101877.31;2063369;28;20079;-62
2021/03/06 00:34:16;;;;;;;5.17;4.10;;;;;;;-1.44;65.68;101875.75;2063843;28;20464;-62
2021/03/06 00:35:17;;;;;;;6.10;4.23;;;;;;;-1.43;65.79;101880.06;2064172;28;20100;-62
2021/03/06 00:36:17;;;;;;;6.43;4.40;;;;;;;-1.46;65.87;101877.34;2064278;28;20026;-62
2021/03/06 00:37:18;;;;;;;6.10;4.20;;;;;;;-1.18;65.15;101887.97;2064197;28;20399;-62
2021/03/06 00:38:18;;;;;;;6.75;4.30;;;;;;;-1.34;65.19;101876.16;2064509;28;20034;-62
2021/03/06 00:39:19;;;;;;;7.03;4.80;;;;;;;-1.47;65.87;101879.84;2064041;28;20467;-62
2021/03/06 00:40:19;;;;;;;6.30;4.40;;;;;;;-1.37;65.58;101884.59;2063853;28;20032;-62
2021/03/06 00:41:19;;;;;;;7.10;4.47;;;;;;;-1.37;65.70;101881.16;2064056;28;20034;-62
2021/03/06 00:42:20;;;;;;;5.87;4.23;;;;;;;-1.40;65.54;101876.75;2064327;28;20057;-62
2021/03/06 00:43:20;;;;;;;5.90;4.37;;;;;;;-1.53;65.98;101883.00;2064180;28;20057;-62
2021/03/06 00:44:20;;;;;;;5.97;4.23;;;;;;;-1.57;66.31;101876.00;2064271;28;20040;-62
2021/03/06 00:45:21;;;;;;;6.10;4.47;;;;;;;-1.60;66.19;101881.81;2064451;28;20051;-62
2021/03/06 00:46:21;;;;;;;7.10;4.50;;;;;;;-1.68;66.53;101877.19;2064056;28;20100;-62
2021/03/06 00:47:21;;;;;;;6.00;4.63;;;;;;;-1.65;66.45;101875.63;2064465;28;20025;-62
2021/03/06 00:48:21;;;;;;;7.90;4.80;;;;;;;-1.54;65.88;101876.13;2064046;28;20026;-62
2021/03/06 00:49:23;;;;;;;5.83;4.13;;;;;;;-1.46;65.86;101879.91;2064065;28;20022;-62
2021/03/06 00:50:30;;;;;;;7.93;4.50;;;;;;;-1.52;65.81;101882.19;2063707;28;20080;-62
2021/03/06 00:51:31;;;;;;;4.80;3.90;;;;;;;-1.61;66.25;101877.50;2063345;28;20022;-62
2021/03/06 00:52:31;;;;;;;7.23;4.17;;;;;;;-1.58;65.95;101875.13;2062770;28;20403;-62
2021/03/06 00:53:31;;;;;;;5.53;4.20;;;;;;;-1.68;66.28;101874.63;2063685;28;20030;-62
2021/03/06 00:54:31;;;;;;;9.13;4.20;;;;;;;-1.65;66.32;101869.63;2063970;28;20110;-62
2021/03/06 00:55:32;;;;;;;5.77;4.13;;;;;;;-1.59;66.01;101883.59;2064087;28;20046;-62
2021/03/06 00:56:32;;;;;;;5.27;4.30;;;;;;;-1.56;65.96;101877.72;2063744;28;20430;-62
2021/03/06 00:57:32;;;;;;;5.17;4.13;;;;;;;-1.61;66.12;101874.97;2071553;28;20026;-62
2021/03/06 00:58:33;;;;;;;5.27;3.80;;;;;;;-1.50;65.80;101879.69;2071520;28;20032;-62
2021/03/06 00:59:33;;;;;;;9.10;4.17;;;;;;;-1.62;66.17;101883.47;2063790;28;20054;-62
2021/03/06 01:00:33;;;;;;;7.70;4.23;;;;;;;-1.81;66.87;101878.28;2063572;28;20395;-62
2021/03/06 01:01:34;;;;;;;5.27;4.40;;;;;;;-1.74;66.53;101881.19;2064031;28;20030;-62
2021/03/06 01:02:34;;;;;;;6.80;4.10;;;;;;;-1.82;66.84;101881.66;2063779;28;20026;-62
2021/03/06 01:03:34;;;;;;;7.00;5.17;;;;;;;-1.75;66.50;101876.00;2071578;28;20030;-62
2021/03/06 01:04:35;;;;;;;4.90;4.07;;;;;;;-1.81;67.00;101874.03;2063223;28;20040;-62
2021/03/06 01:05:35;;;;;;;7.03;4.37;;;;;;;-1.82;66.44;101867.16;2063273;28;20410;-62
2021/03/06 01:06:35;;;;;;;6.77;4.30;;;;;;;-1.83;66.84;101867.09;2063643;28;20034;-62
2021/03/06 01:07:36;;;;;;;8.70;4.83;;;;;;;-1.75;66.25;101871.75;2063380;28;20105;-62
2021/03/06 01:08:36;;;;;;;5.77;4.10;;;;;;;-1.67;66.19;101867.00;2063194;28;20462;-62
2021/03/06 01:09:36;;;;;;;7.03;4.40;;;;;;;-1.80;66.41;101867.22;2064008;28;20425;-62
2021/03/06 01:10:40;;;;;;;4.97;4.00;;;;;;;-1.75;66.62;101868.34;2063477;28;20026;-62
2021/03/06 01:11:40;;;;;;;6.10;4.13;;;;;;;-1.83;66.66;101874.78;2064129;28;20030;-62
2021/03/06 01:12:41;;;;;;;5.83;4.17;;;;;;;-1.97;67.10;101867.31;2063769;28;20022;-62
2021/03/06 01:13:41;;;;;;;7.43;4.10;;;;;;;-2.01;67.18;101865.44;2064107;28;20050;-62
2021/03/06 01:14:41;;;;;;;8.57;4.40;;;;;;;-1.96;67.34;101863.97;2064116;28;20387;-62
2021/03/06 01:15:42;;;;;;;6.30;4.50;;;;;;;-1.77;66.25;101864.81;2064152;28;20030;-61
2021/03/06 01:16:43;;;;;;;5.73;4.33;;;;;;;-1.86;66.62;101861.84;2063902;28;20030;-62
2021/03/06 01:17:43;;;;;;;9.48;4.30;;;;;;;-1.79;66.43;101866.44;2063982;28;20060;-62
2021/03/06 01:18:43;;;;;;;7.13;4.90;;;;;;;-1.77;66.23;101867.38;2064102;28;20062;-62
2021/03/06 01:19:44;;;;;;;4.80;3.97;;;;;;;-1.66;65.96;101866.22;2063617;28;20126;-62
2021/03/06 01:20:44;;;;;;;6.13;4.57;;;;;;;-1.73;66.10;101864.19;2064138;28;20030;-62
2021/03/06 01:21:44;;;;;;;5.97;4.43;;;;;;;-1.80;66.45;101864.69;2064062;28;20018;-62
2021/03/06 01:22:45;;;;;;;5.03;4.10;;;;;;;-1.96;66.99;101863.97;2063141;28;20264;-62
2021/03/06 01:23:46;;;;;;;6.65;4.40;;;;;;;-1.96;67.35;101863.97;2063118;28;20030;-62
2021/03/06 01:24:47;;;;;;;5.40;4.15;;;;;;;-1.94;67.40;101871.69;2063945;28;20027;-64
2021/03/06 01:25:47;;;;;;;6.17;4.57;;;;;;;-1.91;67.42;101862.50;2063868;28;20390;-62
2021/03/06 01:26:48;;;;;;;5.17;4.57;;;;;;;-1.85;66.91;101863.59;2063888;28;20034;-62
2021/03/06 01:27:49;;;;;;;7.78;5.03;;;;;;;-1.96;67.31;101868.22;2064266;28;20037;-62
2021/03/06 01:28:49;;;;;;;6.03;4.40;;;;;;;-1.95;67.40;101864.81;2064355;28;20026;-62
2021/03/06 01:29:49;;;;;;;6.63;4.70;;;;;;;-2.05;67.70;101873.75;2063502;28;20377;-62
2021/03/06 01:30:50;;;;;;;7.33;4.40;;;;;;;-2.13;67.88;101870.81;2063988;28;20048;-62
2021/03/06 01:31:50;;;;;;;7.50;4.50;;;;;;;-2.11;68.21;101873.47;2063906;28;20101;-62
2021/03/06 01:32:52;;;;;;;6.53;4.83;;;;;;;-1.99;67.87;101866.34;2063627;28;20491;-62
2021/03/06 01:33:52;;;;;;;5.85;4.95;;;;;;;-2.06;68.00;101865.19;2063764;28;20022;-62
2021/03/06 01:34:52;;;;;;;6.67;4.40;;;;;;;-2.00;67.96;101864.59;2064059;28;20365;-62
2021/03/06 01:35:53;;;;;;;6.77;4.50;;;;;;;-2.13;68.22;101864.84;2063888;28;20026;-62
2021/03/06 01:36:53;;;;;;;7.70;4.90;;;;;;;-2.16;68.42;101862.13;2064120;28;20034;-62
2021/03/06 01:37:54;;;;;;;7.22;4.50;;;;;;;-2.17;68.66;101862.91;2063954;28;20026;-62
2021/03/06 01:38:54;;;;;;;8.20;4.50;;;;;;;-2.12;68.62;101866.59;2064086;28;20046;-62
2021/03/06 01:39:55;;;;;;;6.50;4.67;;;;;;;-2.09;68.50;101871.81;2063760;28;20386;-62
2021/03/06 01:40:55;;;;;;;6.37;4.23;;;;;;;-2.20;68.83;101868.75;2064025;28;20050;-62
2021/03/06 01:41:55;;;;;;;6.00;4.40;;;;;;;-2.17;68.81;101863.81;2063893;28;20034;-62
2021/03/06 01:42:57;;;;;;;5.63;4.50;;;;;;;-2.22;69.00;101855.94;2063946;28;20030;-62
2021/03/06 01:43:57;;;;;;;7.38;4.63;;;;;;;-2.25;68.87;101865.97;2064174;28;20105;-62
2021/03/06 01:44:57;;;;;;;6.73;4.50;;;;;;;-2.32;69.06;101857.94;2064121;28;20490;-62
2021/03/06 01:45:58;;;;;;;7.13;4.63;;;;;;;-2.37;69.29;101860.25;2063824;28;20418;-62
2021/03/06 01:46:59;;;;;;;7.23;4.70;;;;;;;-2.45;69.28;101862.44;2064099;28;20073;-62
2021/03/06 01:48:00;;;;;;;6.15;4.53;;;;;;;-2.33;68.84;101857.06;2064103;28;20029;-62
2021/03/06 01:49:01;;;;;;;5.80;4.28;;;;;;;-2.46;68.84;101858.16;2063962;28;20018;-62
2021/03/06 01:50:04;;;;;;;5.82;4.22;;;;;;;-2.47;69.34;101848.72;2063895;28;20018;-62
2021/03/06 01:51:05;;;;;;;7.78;4.28;;;;;;;-2.51;69.30;101857.91;2063956;28;20033;-62
2021/03/06 01:52:05;;;;;;;8.00;4.43;;;;;;;-2.30;68.46;101854.66;2064270;28;20531;-62
2021/03/06 01:53:08;;;;;;;5.43;3.90;;;;;;;-2.33;68.44;101849.41;2064163;28;20490;-62
2021/03/06 01:54:10;;;;;;;5.22;4.07;;;;;;;-2.33;68.33;101851.97;2064332;28;20434;-62
2021/03/06 01:55:11;;;;;;;6.43;4.38;;;;;;;-2.33;68.41;101851.06;2064380;28;20037;-62
2021/03/06 01:56:11;;;;;;;5.37;4.37;;;;;;;-2.19;68.13;101857.75;2064353;28;20462;-62
2021/03/06 01:57:12;;;;;;;5.97;4.10;;;;;;;-2.09;67.36;101857.38;2064024;28;20117;-62
2021/03/06 01:58:16;;;;;;;4.50;3.93;;;;;;;-2.20;67.96;101856.00;2064274;28;20022;-62
2021/03/06 01:59:16;;;;;;;7.65;4.10;;;;;;;-2.35;68.03;101848.44;2063137;28;20022;-62
2021/03/06 02:00:19;;;;;;;6.60;4.37;;;;;;;-2.22;68.08;101850.81;2063067;28;20503;-62
2021/03/06 02:01:19;;;;;;;5.72;3.72;;;;;;;-2.34;68.27;101855.31;2063815;28;20034;-62
2021/03/06 02:02:20;;;;;;;6.27;4.10;;;;;;;-2.29;68.00;101853.84;2064178;28;20125;-62
2021/03/06 02:03:20;;;;;;;7.47;4.35;;;;;;;-2.36;68.37;101851.81;2063819;28;20030;-62
2021/03/06 02:04:20;;;;;;;4.63;3.83;;;;;;;-2.37;68.26;101850.94;2064800;28;20438;-62
2021/03/06 02:05:21;;;;;;;5.23;4.13;;;;;;;-2.47;68.75;101852.94;2065395;28;20032;-62
2021/03/06 02:06:21;;;;;;;5.70;4.30;;;;;;;-2.44;68.49;101853.97;2065115;28;20390;-62
2021/03/06 02:07:21;;;;;;;7.03;4.23;;;;;;;-2.46;68.70;101850.50;2065233;28;20066;-62
2021/03/06 02:08:21;;;;;;;6.00;3.87;;;;;;;-2.52;68.83;101861.28;2065191;28;20034;-62
2021/03/06 02:09:22;;;;;;;5.83;4.20;;;;;;;-2.45;68.72;101864.13;2065175;28;20050;-62
2021/03/06 02:10:28;;;;;;;5.43;3.85;;;;;;;-2.52;68.92;101858.72;2064902;28;20498;-63
2021/03/06 02:12:07;;;;;;;4.93;3.72;;;;;;;-2.57;68.95;101856.72;2064888;28;20418;-62
2021/03/06 02:13:07;;;;;;;6.38;4.07;;;;;;;-2.63;69.10;101862.41;2055637;28;20033;-62
2021/03/06 02:14:08;;;;;;;6.23;4.73;;;;;;;-2.71;69.29;101864.56;2063384;28;20040;-62
2021/03/06 02:15:19;;;;;;;6.23;3.90;;;;;;;-2.72;69.45;101861.94;2065249;28;20554;-62
2021/03/06 02:16:31;;;;;;;5.20;4.18;;;;;;;-2.71;69.45;101864.56;2065269;28;20022;-62
2021/03/06 02:17:35;;;;;;;;;;;;;;;-2.77;69.54;101869.34;2065568;28;20026;-62
2021/03/06 02:18:42;;;;;;;6.03;3.90;;;;;;;-2.68;69.25;101864.72;2065351;28;20093;-65
2021/03/06 02:20:12;;;;;;;4.95;3.80;;;;;;;-2.67;68.99;101870.69;2064881;28;20030;-63
2021/03/06 02:21:44;;;;;;;6.10;4.10;;;;;;;-2.64;69.13;101864.88;2064396;28;20030;-62
2021/03/06 02:22:50;;;;;;;7.78;4.03;;;;;;;-2.71;69.31;101864.56;2064784;28;20104;-62
2021/03/06 02:24:10;;;;;;;7.07;4.47;;;;;;;-2.57;68.78;101864.38;2064965;28;20510;-62
2021/03/06 02:25:51;;;;;;;5.88;3.40;;;;;;;-2.65;68.77;101864.00;2065266;28;20434;-62
2021/03/06 02:27:28;;;;;;;5.55;3.45;;;;;;;-2.60;68.68;101857.47;2056778;28;20404;-62
2021/03/06 02:28:34;;;;;;;6.82;4.00;;;;;;;-2.57;68.49;101855.03;2065003;28;20065;-62
2021/03/06 02:29:38;;;;;;;6.50;4.10;;;;;;;-2.56;68.62;101859.34;2065279;28;20368;-62
2021/03/06 02:30:39;;;;;;;5.78;4.18;;;;;;;-2.53;68.42;101851.84;2064334;28;20550;-62
2021/03/06 02:31:41;;;;;;;6.10;3.95;;;;;;;-2.61;68.57;101860.81;2064653;28;20026;-62
2021/03/06 02:32:45;;;;;;;7.45;4.18;;;;;;;-2.64;68.71;101850.44;2064986;28;20169;-62
2021/03/06 02:33:53;;;;;;;6.22;3.97;;;;;;;-2.54;68.11;101856.88;2065223;28;20411;-62
2021/03/06 02:35:02;;;;;;;5.60;3.90;;;;;;;-2.60;68.42;101852.34;2079220;23;20046;-60
2021/03/06 02:36:08;;;;;;;6.88;4.18;;;;;;;-2.57;68.79;101857.59;2064629;28;20413;-59
2021/03/06 02:37:10;;;;;;;6.28;4.32;;;;;;;-2.59;68.53;101853.22;2064879;28;20521;-60
2021/03/06 02:38:11;;;;;;;5.32;3.75;;;;;;;-2.58;67.98;101853.28;2065016;28;20034;-60
2021/03/06 02:39:15;;;;;;;4.95;3.90;;;;;;;-2.58;68.30;101852.41;2065331;28;20026;-60
2021/03/06 02:40:16;;;;;;;5.22;3.78;;;;;;;-2.67;68.52;101857.94;2064722;28;20026;-59
2021/03/06 02:41:17;;;;;;;;;;;;;;;-2.74;68.96;101858.41;2065714;28;20089;-61
2021/03/06 02:42:24;;;;;;;5.05;3.42;;;;;;;-2.79;69.32;101860.75;2065147;28;19916;-59
2021/03/06 02:43:25;;;;;;;5.57;3.88;;;;;;;-2.83;69.09;101859.72;2065255;28;20026;-60
2021/03/06 02:44:28;;;;;;;8.13;4.22;;;;;;;-2.92;69.79;101859.25;2065134;28;20033;-60
2021/03/06 02:45:30;;;;;;;5.18;3.90;;;;;;;-2.98;69.85;101851.25;2065232;28;20088;-60
2021/03/06 02:46:31;;;;;;;4.97;3.70;;;;;;;-3.00;69.65;101855.41;2065067;28;20057;-60
2021/03/06 02:47:32;;;;;;;6.47;4.03;;;;;;;-3.01;69.67;101858.75;2065271;28;20382;-60
2021/03/06 02:48:34;;;;;;;5.87;4.23;;;;;;;-3.07;70.64;101860.97;2065103;28;20038;-60
2021/03/06 02:49:35;;;;;;;6.85;4.32;;;;;;;-3.00;69.94;101863.94;2065096;28;20026;-60
2021/03/06 02:50:35;;;;;;;4.70;3.85;;;;;;;-3.09;70.25;101862.59;2064761;28;20045;-60
2021/03/06 02:51:40;;;;;;;6.03;4.00;;;;;;;-3.20;70.24;101857.81;2065224;28;20452;-60
2021/03/06 02:52:41;;;;;;;5.50;3.90;;;;;;;-3.29;70.91;101862.41;2065001;28;20050;-60
2021/03/06 02:53:41;;;;;;;6.10;4.27;;;;;;;-3.33;71.10;101865.59;2065119;28;20026;-60
2021/03/06 02:54:42;;;;;;;5.60;4.07;;;;;;;-3.31;71.70;101869.97;2065079;28;20034;-60
2021/03/06 02:55:42;;;;;;;4.50;3.90;;;;;;;-3.38;71.88;101861.94;2065053;28;20077;-60
2021/03/06 02:56:43;;;;;;;5.87;3.70;;;;;;;-3.40;72.18;101858.41;2065198;28;20688;-59
2021/03/06 02:58:13;;;;;;;5.20;4.15;;;;;;;-3.44;72.74;101862.47;2065187;28;20093;-59
2021/03/06 02:59:26;;;;;;;5.85;4.25;;;;;;;-3.56;72.92;101860.13;2064940;28;20512;-59
2021/03/06 03:00:47;;;;;;;5.75;4.43;;;;;;;-3.52;73.30;101862.06;2064664;28;20391;-60
2021/03/06 03:02:09;;;;;;;5.03;4.28;;;;;;;-3.62;73.86;101859.78;2064864;28;20482;-60
2021/03/06 03:03:20;;;;;;;6.30;4.57;;;;;;;-3.62;74.04;101850.47;2065184;28;20032;-60
2021/03/06 03:04:55;;;;;;;5.47;4.38;;;;;;;-3.73;75.00;101848.13;2065134;28;20394;-60
2021/03/06 03:05:58;;;;;;;5.78;5.05;;;;;;;-3.75;76.23;101850.63;2057444;28;20034;-60
2021/03/06 03:07:14;;;;;;;6.45;5.25;;;;;;;-3.75;76.74;101855.72;2064821;28;20022;-60
2021/03/06 03:08:23;;;;;;;8.95;5.80;;;;;;;-3.82;77.33;101857.03;2064892;28;20422;-60
2021/03/06 03:09:30;;;;;;;8.02;6.13;;;;;;;-3.84;78.32;101856.06;2064424;28;20022;-60
2021/03/06 03:10:33;;;;;;;8.57;6.38;;;;;;;-3.91;78.44;101853.97;2064216;28;20390;-60
2021/03/06 03:11:45;;;;;;;9.32;6.55;;;;;;;-3.99;78.92;101856.09;2063679;28;20407;-60
2021/03/06 03:13:13;;;;;;;9.18;6.68;;;;;;;-3.99;79.49;101852.69;2064038;28;20022;-60
2021/03/06 03:14:18;;;;;;;9.70;7.28;;;;;;;-4.08;79.70;101860.66;2060727;28;20042;-60
2021/03/06 03:15:20;;;;;;;8.70;7.30;;;;;;;-4.11;79.82;101865.56;2064861;28;20092;-60
2021/03/06 03:16:29;;;;;;;;;;;;;;;-4.15;80.22;101856.91;2064435;28;20490;-59
2021/03/06 03:17:34;;;;;;;10.35;7.30;;;;;;;-4.14;80.95;101856.09;2067621;28;20290;-60
2021/03/06 03:18:45;;;;;;;11.85;8.05;;;;;;;-4.22;81.02;101857.34;2064912;28;20030;-60
2021/03/06 03:20:03;;;;;;;11.88;8.30;;;;;;;-4.25;81.14;101852.06;2064521;28;20102;-58
2021/03/06 03:21:05;;;;;;;11.15;7.85;;;;;;;-4.27;81.62;101861.31;2064895;28;20050;-57
2021/03/06 03:22:09;;;;;;;11.07;7.90;;;;;;;-4.29;81.57;101858.66;2064662;28;20094;-58
2021/03/06 03:23:15;;;;;;;14.77;8.40;;;;;;;-4.23;82.16;101851.38;2064942;28;20599;-58
2021/03/06 03:24:20;;;;;;;12.35;9.05;;;;;;;-4.24;81.79;101858.91;2064824;28;20077;-58
2021/03/06 03:25:21;;;;;;;13.25;8.98;;;;;;;-4.26;81.95;101861.38;2064910;28;20503;-58
2021/03/06 03:26:23;;;;;;;11.70;8.18;;;;;;;-4.27;81.88;101858.78;2064667;28;20029;-58
2021/03/06 03:27:25;;;;;;;12.18;8.98;;;;;;;-4.23;82.04;101850.50;2064920;28;20034;-58
2021/03/06 03:28:30;;;;;;;11.15;8.55;;;;;;;-4.20;82.45;101855.78;2064745;28;20482;-58
2021/03/06 03:29:32;;;;;;;13.02;9.15;;;;;;;-4.17;82.09;101849.97;2064776;28;20066;-59
2021/03/06 03:30:33;;;;;;;14.30;9.40;;;;;;;-4.19;81.87;101849.00;2064404;28;20026;-58
2021/03/06 03:31:35;;;;;;;13.85;8.77;;;;;;;-4.16;81.98;101846.63;2064900;28;20121;-58
2021/03/06 03:32:36;;;;;;;14.95;8.77;;;;;;;-4.13;81.74;101851.91;2064489;28;20037;-59
2021/03/06 03:33:39;;;;;;;13.80;8.45;;;;;;;-4.15;82.00;101854.34;2064822;28;20026;-59
2021/03/06 03:34:42;;;;;;;13.45;8.75;;;;;;;-4.09;81.81;101853.81;2064689;28;20034;-60
2021/03/06 03:35:44;;;;;;;13.80;8.52;;;;;;;-4.08;81.89;101851.38;2064925;28;20114;-60
2021/03/06 03:36:48;;;;;;;11.60;8.23;;;;;;;-4.09;81.52;101849.63;2064690;28;20037;-60
2021/03/06 03:37:49;;;;;;;11.35;8.45;;;;;;;-4.01;81.29;101854.25;2064417;28;20354;-60
2021/03/06 03:38:50;;;;;;;11.43;8.20;;;;;;;-4.00;81.39;101856.00;2064021;28;20026;-60
2021/03/06 03:39:52;;;;;;;11.30;8.18;;;;;;;-4.02;81.16;101850.84;2071653;28;20053;-60
2021/03/06 03:40:53;;;;;;;11.82;8.10;;;;;;;-4.00;81.04;101858.56;2064557;28;20439;-60
2021/03/06 03:41:53;;;;;;;12.77;8.05;;;;;;;-4.00;81.10;101856.00;2064860;28;20026;-60
2021/03/06 03:42:56;;;;;;;12.32;8.40;;;;;;;-3.99;81.31;101855.22;2064576;28;20371;-60
2021/03/06 03:44:01;;;;;;;13.13;8.45;;;;;;;-3.98;81.05;101857.84;2064835;28;20052;-59
2021/03/06 03:45:06;;;;;;;15.02;7.90;;;;;;;-4.01;81.08;101851.72;2063959;28;20033;-60
2021/03/06 03:46:07;;;;;;;9.52;6.68;;;;;;;-4.03;81.13;101854.19;2064061;28;20037;-58
2021/03/06 03:47:07;;;;;;;11.48;8.20;;;;;;;-4.04;80.94;101856.63;2064443;28;20032;-58
2021/03/06 03:48:10;;;;;;;10.88;7.93;;;;;;;-4.04;80.85;101854.97;2064796;28;20037;-58
2021/03/06 03:49:14;;;;;;;11.85;7.60;;;;;;;-4.08;80.99;101851.38;2064508;28;20466;-58
2021/03/06 03:50:16;;;;;;;14.43;8.48;;;;;;;-4.13;81.11;101857.88;2064450;28;20031;-58
2021/03/06 03:51:16;;;;;;;12.07;7.70;;;;;;;-4.22;80.95;101858.25;2064503;28;20546;-58
2021/03/06 03:52:17;;;;;;;10.73;7.90;;;;;;;-4.16;81.17;101864.47;2064679;28;20027;-58
2021/03/06 03:53:18;;;;;;;10.30;7.33;;;;;;;-4.19;81.44;101865.16;2064437;28;20331;-58
2021/03/06 03:54:18;;;;;;;11.25;7.72;;;;;;;-4.21;81.50;101856.56;2064696;28;20086;-58
2021/03/06 03:55:19;;;;;;;10.90;7.72;;;;;;;-4.20;81.23;101860.88;2064585;28;20038;-58
2021/03/06 03:56:19;;;;;;;14.37;8.20;;;;;;;-4.23;81.38;101860.69;2064570;28;20034;-58
2021/03/06 03:57:20;;;;;;;12.75;8.43;;;;;;;-4.27;81.66;101862.19;2064718;28;20105;-58
2021/03/06 03:58:21;;;;;;;13.63;7.70;;;;;;;-4.26;81.91;101868.16;2064744;28;20030;-58
2021/03/06 03:59:21;;;;;;;10.30;7.63;;;;;;;-4.28;82.00;101867.19;2064472;28;20026;-58
2021/03/06 04:00:22;;;;;;;9.60;7.37;;;;;;;-4.35;81.78;101863.41;2064202;28;20034;-58
2021/03/06 04:01:23;;;;;;;16.23;8.65;;;;;;;-4.38;81.99;101866.66;2064608;28;20382;-57
2021/03/06 04:02:23;;;;;;;12.80;8.27;;;;;;;-4.46;82.21;101860.25;2064222;28;20181;-58
2021/03/06 04:03:25;;;;;;;10.93;7.63;;;;;;;-4.44;82.50;101863.75;2064249;28;20034;-58
2021/03/06 04:04:25;;;;;;;12.05;7.82;;;;;;;-4.53;82.42;101869.19;2064400;28;20026;-57
2021/03/06 04:05:25;;;;;;;13.40;8.00;;;;;;;-4.53;82.44;101866.66;2064385;28;20026;-58
2021/03/06 04:06:25;;;;;;;9.23;7.47;;;;;;;-4.51;82.86;101868.41;2064233;28;20054;-59
2021/03/06 04:07:26;;;;;;;10.93;7.60;;;;;;;-4.56;82.73;101863.91;2064214;28;20537;-60
2021/03/06 04:08:26;;;;;;;12.65;7.93;;;;;;;-4.53;82.83;101869.19;2064191;28;20072;-60
2021/03/06 04:09:27;;;;;;;14.97;8.10;;;;;;;-4.55;82.91;101864.78;2064250;28;20101;-60
2021/03/06 04:10:28;;;;;;;11.70;8.23;;;;;;;-4.55;83.08;101868.22;2063794;28;20033;-60
2021/03/06 04:11:28;;;;;;;12.07;7.63;;;;;;;-4.57;82.95;101866.38;2064344;28;20041;-60
2021/03/06 04:12:29;;;;;;;11.90;7.63;;;;;;;-4.51;83.12;101864.19;2064190;28;20022;-60
2021/03/06 04:13:29;;;;;;;11.30;7.57;;;;;;;-4.60;82.76;101869.59;2064214;28;20053;-58
2021/03/06 04:14:29;;;;;;;9.90;7.27;;;;;;;-4.56;82.71;101875.78;2064219;28;20022;-58
2021/03/06 04:15:29;;;;;;;11.73;7.63;;;;;;;-4.56;82.97;101874.09;2064183;28;20421;-58
2021/03/06 04:16:30;;;;;;;12.43;8.03;;;;;;;-4.54;83.34;101872.53;2063985;28;20101;-58
2021/03/06 04:17:31;;;;;;;11.77;7.87;;;;;;;-4.41;83.36;101876.66;2064391;28;20029;-58
2021/03/06 04:18:31;;;;;;;12.10;8.15;;;;;;;-4.41;82.98;101880.88;2064105;28;20022;-58
2021/03/06 04:19:31;;;;;;;11.77;7.50;;;;;;;-4.42;82.90;101881.69;2064035;28;20130;-60
2021/03/06 04:20:33;;;;;;;11.43;7.83;;;;;;;-4.40;82.87;101883.50;2063605;28;20125;-60
2021/03/06 04:21:33;;;;;;;10.02;7.22;;;;;;;-4.39;82.83;101885.28;2062303;28;20088;-60
2021/03/06 04:22:34;;;;;;;11.40;7.60;;;;;;;-4.41;82.99;101883.44;2063990;28;20053;-60
2021/03/06 04:23:34;;;;;;;11.13;7.47;;;;;;;-4.38;82.98;101879.41;2064227;28;20076;-60
2021/03/06 04:24:34;;;;;;;9.93;7.17;;;;;;;-4.38;82.99;101881.94;2064132;28;20022;-59
2021/03/06 04:25:35;;;;;;;11.23;7.97;;;;;;;-4.35;82.51;101878.69;2064182;28;20494;-60
2021/03/06 04:26:35;;;;;;;9.37;7.37;;;;;;;-4.30;82.45;101882.34;2063860;28;20030;-60
2021/03/06 04:27:37;;;;;;;12.33;7.40;;;;;;;-4.26;82.29;101885.97;2064094;28;20058;-59
2021/03/06 04:28:37;;;;;;;11.07;7.20;;;;;;;-4.31;82.16;101883.16;2064016;28;20030;-60
2021/03/06 04:29:37;;;;;;;10.30;6.50;;;;;;;-4.32;82.42;101876.31;2071489;28;20049;-60
2021/03/06 04:30:38;;;;;;;11.53;7.37;;;;;;;-4.31;82.60;101878.06;2071302;28;20054;-59
2021/03/06 04:31:38;;;;;;;8.87;6.50;;;;;;;-4.34;82.49;101887.19;2064352;28;20054;-60
2021/03/06 04:32:39;;;;;;;9.43;6.80;;;;;;;-4.32;82.29;101888.16;2063993;28;20061;-60
2021/03/06 04:33:39;;;;;;;9.90;7.50;;;;;;;-4.38;82.48;101886.13;2064216;28;20103;-59
2021/03/06 04:34:40;;;;;;;10.83;7.47;;;;;;;-4.27;82.28;101891.88;2063925;28;20030;-60
2021/03/06 04:35:40;;;;;;;11.47;6.70;;;;;;;-4.28;82.03;101892.66;2064148;28;20014;-59
2021/03/06 04:36:41;;;;;;;10.23;7.30;;;;;;;-4.26;81.88;101893.63;2064065;28;20033;-60
2021/03/06 04:37:41;;;;;;;8.55;6.65;;;;;;;-4.26;82.13;101888.53;2064166;28;20097;-60
2021/03/06 04:38:41;;;;;;;10.37;7.80;;;;;;;-4.27;81.79;101904.59;2064191;28;20578;-60
2021/03/06 04:39:42;;;;;;;10.90;7.17;;;;;;;-4.21;81.80;101897.28;2071219;28;20077;-60
2021/03/06 04:40:42;;;;;;;9.80;6.93;;;;;;;-4.19;81.48;101898.28;2071297;28;20139;-60
2021/03/06 04:41:42;;;;;;;10.47;7.10;;;;;;;-4.24;81.67;101895.47;2063896;28;20081;-59
2021/03/06 04:42:43;;;;;;;11.33;7.37;;;;;;;-4.25;81.67;101888.59;2063886;28;20054;-60
2021/03/06 04:43:43;;;;;;;8.60;6.67;;;;;;;-4.23;81.92;101902.31;2064703;28;20037;-59
2021/03/06 04:44:44;;;;;;;8.98;7.00;;;;;;;-4.28;81.79;101895.19;2064201;28;20498;-59
2021/03/06 04:45:44;;;;;;;10.73;6.63;;;;;;;-4.27;81.89;101894.41;2063281;28;20040;-59
2021/03/06 04:46:45;;;;;;;10.93;6.67;;;;;;;-4.31;81.95;101892.47;2063862;28;20052;-60
2021/03/06 04:47:45;;;;;;;8.73;6.60;;;;;;;-4.34;82.10;101898.25;2063942;28;20113;-58
2021/03/06 04:48:45;;;;;;;11.23;7.87;;;;;;;-4.30;82.32;101889.13;2064351;28;20493;-58
2021/03/06 04:49:46;;;;;;;10.63;7.10;;;;;;;-4.33;82.24;101891.50;2063577;28;20053;-58
2021/03/06 04:50:46;;;;;;;8.97;6.73;;;;;;;-4.32;81.95;101889.06;2064225;28;20022;-58
2021/03/06 04:51:47;;;;;;;9.35;7.10;;;;;;;-4.31;82.18;101889.91;2063852;28;20080;-58